Time;durP1;ratioP1;P1;durP2;ratioP2;P2;SDS_P1;SDS_P2;PMS_P1;PMS_P2;Temp;Humidity;BMP_temperature;BMP_pressure;BME280_temperature;BME280_humidity;BME280_pressure;Samples;Min_cycle;Max_cycle;Signal;HPM_P1;HPM_P2
2023/10/06 00:02:31;;;;;;;11.48;8.90;;;;;;;;;;5098396;28;20066;-75
2023/10/06 00:04:56;;;;;;;12.65;9.32;;;;;;;;;;5097499;28;20039;-76
2023/10/06 00:07:24;;;;;;;13.90;9.57;;;;;;;;;;5097427;28;20023;-78
2023/10/06 00:09:50;;;;;;;11.02;9.73;;;;;;;;;;5094901;28;20035;-76
2023/10/06 00:12:16;;;;;;;14.43;10.13;;;;;;;;;;5096141;28;20032;-76
2023/10/06 00:14:48;;;;;;;11.50;10.02;;;;;;;;;;5088105;28;20015;-76
2023/10/06 00:17:17;;;;;;;12.65;9.70;;;;;;;;;;5098227;28;20044;-76
2023/10/06 00:19:43;;;;;;;10.73;9.27;;;;;;;;;;5096816;28;20011;-75
2023/10/06 00:24:36;;;;;;;11.93;9.90;;;;;;;;;;5087956;28;20081;-78
2023/10/06 00:27:03;;;;;;;11.80;9.70;;;;;;;;;;5095915;28;20101;-79
2023/10/06 00:29:29;;;;;;;13.38;9.90;;;;;;;;;;5099524;28;20027;-79
2023/10/06 00:32:00;;;;;;;14.23;9.13;;;;;;;;;;5098042;28;20031;-78
2023/10/06 00:34:30;;;;;;;10.80;9.40;;;;;;;;;;5096680;28;20359;-78
2023/10/06 00:36:56;;;;;;;10.68;9.00;;;;;;;;;;5097026;27;20035;-78
2023/10/06 00:39:25;;;;;;;11.60;8.98;;;;;;;;;;5096899;28;20032;-78
2023/10/06 00:42:02;;;;;;;10.80;9.25;;;;;;;;;;5087321;28;20111;-77
2023/10/06 00:44:29;;;;;;;10.25;9.05;;;;;;;;;;5096874;28;20531;-77
2023/10/06 00:46:58;;;;;;;10.48;8.95;;;;;;;;;;5095667;28;20031;-76
2023/10/06 00:49:24;;;;;;;13.13;9.57;;;;;;;;;;5095837;28;20454;-77
2023/10/06 00:51:49;;;;;;;13.50;10.10;;;;;;;;;;5096107;28;20035;-77
2023/10/06 00:54:14;;;;;;;13.13;10.25;;;;;;;;;;5098967;28;20035;-78
2023/10/06 00:56:40;;;;;;;12.55;9.60;;;;;;;;;;5095691;28;20474;-77
2023/10/06 00:59:05;;;;;;;10.27;8.80;;;;;;;;;;5097977;28;20024;-77
2023/10/06 01:01:33;;;;;;;9.98;8.68;;;;;;;;;;5096377;28;20031;-76
2023/10/06 01:04:08;;;;;;;12.20;9.00;;;;;;;;;;5097579;28;20024;-76
2023/10/06 01:06:34;;;;;;;9.43;8.40;;;;;;;;;;5099026;28;20038;-76
2023/10/06 01:09:16;;;;;;;11.93;9.20;;;;;;;;;;5096367;28;20032;-77
2023/10/06 01:11:45;;;;;;;12.32;9.55;;;;;;;;;;5096458;28;20104;-76
2023/10/06 01:14:11;;;;;;;9.77;8.80;;;;;;;;;;5096551;28;20032;-76
2023/10/06 01:16:40;;;;;;;10.18;9.10;;;;;;;;;;5096853;28;20762;-76
2023/10/06 01:19:17;;;;;;;11.30;10.10;;;;;;;;;;5093882;28;20102;-76
2023/10/06 01:21:53;;;;;;;10.93;9.77;;;;;;;;;;5089785;28;20130;-76
2023/10/06 01:24:25;;;;;;;11.60;9.68;;;;;;;;;;5086973;28;20104;-77
2023/10/06 01:26:54;;;;;;;11.75;9.82;;;;;;;;;;5095876;27;20028;-76
2023/10/06 01:29:26;;;;;;;15.00;11.47;;;;;;;;;;5094555;28;20028;-76
2023/10/06 01:31:51;;;;;;;12.02;10.02;;;;;;;;;;5095618;28;20139;-76
2023/10/06 01:34:18;;;;;;;13.55;10.20;;;;;;;;;;5096606;28;20205;-76
2023/10/06 01:36:45;;;;;;;12.20;9.10;;;;;;;;;;5098559;28;20038;-76
2023/10/06 01:39:16;;;;;;;12.20;9.27;;;;;;;;;;5095159;28;20027;-77
2023/10/06 01:41:42;;;;;;;9.80;8.80;;;;;;;;;;5094445;28;20028;-76
2023/10/06 01:44:12;;;;;;;12.38;9.70;;;;;;;;;;5098735;28;20027;-77
2023/10/06 01:46:38;;;;;;;13.52;9.50;;;;;;;;;;5094357;28;20069;-77
2023/10/06 01:49:04;;;;;;;11.00;9.88;;;;;;;;;;5084375;28;20419;-75
2023/10/06 01:51:35;;;;;;;12.07;10.05;;;;;;;;;;5092492;28;20024;-76
2023/10/06 01:54:02;;;;;;;13.10;9.30;;;;;;;;;;5094724;28;20110;-76
2023/10/06 01:56:30;;;;;;;9.77;8.85;;;;;;;;;;5097501;28;20085;-76
2023/10/06 01:58:56;;;;;;;9.55;8.57;;;;;;;;;;5095171;28;20039;-77
2023/10/06 02:01:21;;;;;;;9.50;8.48;;;;;;;;;;5097358;28;20028;-77
2023/10/06 02:03:46;;;;;;;11.23;8.77;;;;;;;;;;5096913;28;20027;-77
2023/10/06 02:06:16;;;;;;;13.88;9.20;;;;;;;;;;5096172;28;20027;-77
2023/10/06 02:08:43;;;;;;;11.30;8.77;;;;;;;;;;5097528;28;20024;-76
2023/10/06 02:11:08;;;;;;;11.20;8.68;;;;;;;;;;5095038;28;20060;-77
2023/10/06 02:13:35;;;;;;;9.50;8.50;;;;;;;;;;5097004;28;21092;-77
2023/10/06 02:16:03;;;;;;;10.23;9.05;;;;;;;;;;5096371;28;20036;-77
2023/10/06 02:18:37;;;;;;;10.55;9.50;;;;;;;;;;5093717;28;20500;-78
2023/10/06 02:21:09;;;;;;;15.23;9.02;;;;;;;;;;5095851;28;20146;-76
2023/10/06 02:23:37;;;;;;;12.52;9.27;;;;;;;;;;5093852;28;20020;-76
2023/10/06 02:26:13;;;;;;;10.85;9.75;;;;;;;;;;5094500;28;20039;-77
2023/10/06 02:28:40;;;;;;;11.52;8.98;;;;;;;;;;5085533;28;20061;-76
2023/10/06 02:31:06;;;;;;;11.27;9.75;;;;;;;;;;5096898;28;20019;-77
2023/10/06 02:33:36;;;;;;;10.80;9.68;;;;;;;;;;5094976;28;20074;-77
2023/10/06 02:36:15;;;;;;;9.52;8.52;;;;;;;;;;5094434;28;20032;-77
2023/10/06 02:38:41;;;;;;;11.05;9.95;;;;;;;;;;5095689;28;20027;-75
2023/10/06 02:41:07;;;;;;;11.00;9.30;;;;;;;;;;5086084;28;20020;-76
2023/10/06 02:43:33;;;;;;;11.85;9.25;;;;;;;;;;5081821;28;20050;-76
2023/10/06 02:46:04;;;;;;;13.68;9.60;;;;;;;;;;5084570;28;20032;-76
2023/10/06 02:48:33;;;;;;;10.52;9.43;;;;;;;;;;5083391;28;20019;-75
2023/10/06 02:51:01;;;;;;;12.75;9.50;;;;;;;;;;5095955;28;20041;-76
2023/10/06 02:53:29;;;;;;;11.82;9.43;;;;;;;;;;5095710;28;20039;-76
2023/10/06 02:56:05;;;;;;;11.65;9.80;;;;;;;;;;5093750;28;20032;-76
2023/10/06 02:58:31;;;;;;;13.30;9.40;;;;;;;;;;5096713;28;20039;-75
2023/10/06 03:00:57;;;;;;;12.13;9.27;;;;;;;;;;5096135;28;20032;-74
2023/10/06 03:03:27;;;;;;;14.18;9.82;;;;;;;;;;5089027;28;20327;-75
2023/10/06 03:05:53;;;;;;;11.23;9.15;;;;;;;;;;5090124;28;20174;-75
2023/10/06 03:08:22;;;;;;;10.98;8.93;;;;;;;;;;5093319;28;20354;-75
2023/10/06 03:10:48;;;;;;;12.70;9.77;;;;;;;;;;5094894;28;20047;-74
2023/10/06 03:13:33;;;;;;;13.27;9.07;;;;;;;;;;5096603;28;20107;-74
2023/10/06 03:15:59;;;;;;;10.00;8.52;;;;;;;;;;5090360;28;20113;-75
2023/10/06 03:18:25;;;;;;;12.27;9.55;;;;;;;;;;5088104;28;20027;-75
2023/10/06 03:20:53;;;;;;;12.38;10.15;;;;;;;;;;5091817;28;20059;-75
2023/10/06 03:26:25;;;;;;;10.77;9.45;;;;;;;;;;5109718;28;20043;-76
2023/10/06 03:28:52;;;;;;;10.75;9.48;;;;;;;;;;5110847;28;20430;-75
2023/10/06 03:33:44;;;;;;;10.93;9.23;;;;;;;;;;5105330;28;20516;-75
2023/10/06 03:36:10;;;;;;;10.30;8.82;;;;;;;;;;5110357;28;20043;-75
2023/10/06 03:38:43;;;;;;;12.73;10.07;;;;;;;;;;5102919;28;20027;-75
2023/10/06 03:46:11;;;;;;;11.00;9.52;;;;;;;;;;5110063;27;20392;-75
2023/10/06 03:48:38;;;;;;;11.10;9.20;;;;;;;;;;5119048;27;20039;-75
2023/10/06 03:51:05;;;;;;;13.07;10.25;;;;;;;;;;5114655;27;20031;-75
2023/10/06 03:53:31;;;;;;;11.68;10.38;;;;;;;;;;5117182;27;20103;-76
2023/10/06 03:55:57;;;;;;;11.63;10.15;;;;;;;;;;5115354;27;20083;-75
2023/10/06 03:58:27;;;;;;;11.10;10.00;;;;;;;;;;5116044;27;20035;-74
2023/10/06 04:00:52;;;;;;;12.27;10.35;;;;;;;;;;5110637;27;20035;-74
2023/10/06 04:03:18;;;;;;;11.65;9.50;;;;;;;;;;5096260;28;20053;-75
2023/10/06 04:05:48;;;;;;;12.32;9.88;;;;;;;;;;5097167;28;20042;-75
2023/10/06 04:08:15;;;;;;;9.90;8.98;;;;;;;;;;5098190;28;20040;-75
2023/10/06 04:10:42;;;;;;;13.73;10.52;;;;;;;;;;5085738;28;20152;-76
2023/10/06 04:13:08;;;;;;;10.40;9.07;;;;;;;;;;5081971;28;20034;-75
2023/10/06 04:15:43;;;;;;;12.00;10.32;;;;;;;;;;5085389;28;20040;-75
2023/10/06 04:18:10;;;;;;;11.27;9.02;;;;;;;;;;5082755;28;20355;-75
2023/10/06 04:20:41;;;;;;;12.50;9.85;;;;;;;;;;5084101;28;20031;-75
2023/10/06 04:23:07;;;;;;;11.88;9.57;;;;;;;;;;5087676;28;20095;-75
2023/10/06 04:25:38;;;;;;;10.48;9.43;;;;;;;;;;5097465;28;20020;-75
2023/10/06 04:28:08;;;;;;;10.65;9.20;;;;;;;;;;5084619;28;20367;-76
2023/10/06 04:30:34;;;;;;;13.80;9.70;;;;;;;;;;5088408;28;20038;-75
2023/10/06 04:32:59;;;;;;;11.57;10.38;;;;;;;;;;5097692;28;20020;-77
2023/10/06 04:35:26;;;;;;;12.05;10.23;;;;;;;;;;5096908;28;20138;-77
2023/10/06 04:37:52;;;;;;;11.40;9.85;;;;;;;;;;5095551;28;20030;-77
2023/10/06 04:40:20;;;;;;;12.65;9.57;;;;;;;;;;5099151;28;20023;-77
2023/10/06 04:42:45;;;;;;;11.85;10.05;;;;;;;;;;5097188;28;21338;-76
2023/10/06 04:45:12;;;;;;;14.13;9.38;;;;;;;;;;5095384;28;20112;-77
2023/10/06 04:47:41;;;;;;;12.27;10.93;;;;;;;;;;5089906;28;20028;-77
2023/10/06 04:50:09;;;;;;;11.50;10.35;;;;;;;;;;5090754;28;20019;-76
2023/10/06 04:52:38;;;;;;;13.40;9.50;;;;;;;;;;5094280;28;20023;-74
2023/10/06 04:55:04;;;;;;;12.25;9.95;;;;;;;;;;5095543;28;20054;-74
2023/10/06 04:57:30;;;;;;;13.85;11.15;;;;;;;;;;5095584;28;20029;-74
2023/10/06 04:59:55;;;;;;;13.57;11.82;;;;;;;;;;5087260;28;20023;-74
2023/10/06 05:02:22;;;;;;;12.20;10.95;;;;;;;;;;5079706;28;20020;-75
2023/10/06 05:04:47;;;;;;;13.52;10.18;;;;;;;;;;5086157;28;20012;-76
2023/10/06 05:07:13;;;;;;;10.95;9.73;;;;;;;;;;5093376;28;20541;-73
2023/10/06 05:09:40;;;;;;;13.20;10.30;;;;;;;;;;5090521;28;20059;-74
2023/10/06 05:12:05;;;;;;;15.07;11.45;;;;;;;;;;5091639;28;20020;-73
2023/10/06 05:14:34;;;;;;;13.07;10.30;;;;;;;;;;5077460;27;20020;-73
2023/10/06 05:16:59;;;;;;;15.20;10.63;;;;;;;;;;5096295;28;20039;-74
2023/10/06 05:19:24;;;;;;;14.75;10.40;;;;;;;;;;5086938;28;20023;-73
2023/10/06 05:21:52;;;;;;;15.48;13.00;;;;;;;;;;5082118;28;20087;-74
2023/10/06 05:24:18;;;;;;;15.30;12.07;;;;;;;;;;5087705;28;20038;-73
2023/10/06 05:26:43;;;;;;;12.80;11.50;;;;;;;;;;5082482;28;20439;-73
2023/10/06 05:29:11;;;;;;;12.32;11.00;;;;;;;;;;5094701;28;20247;-74
2023/10/06 05:31:37;;;;;;;13.13;11.68;;;;;;;;;;5094166;28;20396;-74
2023/10/06 05:34:04;;;;;;;13.90;11.88;;;;;;;;;;5077270;28;20050;-74
2023/10/06 05:36:31;;;;;;;16.58;12.60;;;;;;;;;;5077511;28;20036;-73
2023/10/06 05:38:56;;;;;;;12.73;11.43;;;;;;;;;;5072086;28;20570;-74
2023/10/06 05:41:22;;;;;;;16.17;11.50;;;;;;;;;;5089661;28;20032;-73
2023/10/06 05:43:48;;;;;;;15.73;11.95;;;;;;;;;;5073505;28;20024;-73
2023/10/06 05:46:14;;;;;;;15.25;10.32;;;;;;;;;;5080461;28;20055;-73
2023/10/06 05:48:39;;;;;;;14.40;11.15;;;;;;;;;;5078568;28;20054;-74
2023/10/06 05:51:05;;;;;;;15.38;12.70;;;;;;;;;;5079774;28;20019;-74
2023/10/06 05:53:38;;;;;;;12.15;10.85;;;;;;;;;;5080837;28;20030;-72
2023/10/06 05:56:06;;;;;;;17.10;11.15;;;;;;;;;;5088697;28;20027;-77
2023/10/06 05:58:34;;;;;;;19.40;11.27;;;;;;;;;;5088009;28;20034;-73
2023/10/06 06:01:18;;;;;;;16.38;11.23;;;;;;;;;;5085455;28;20030;-73
2023/10/06 06:03:46;;;;;;;16.73;10.82;;;;;;;;;;5074943;28;20043;-75
2023/10/06 06:06:14;;;;;;;11.88;9.85;;;;;;;;;;5093317;28;20064;-75
2023/10/06 06:08:43;;;;;;;12.35;10.55;;;;;;;;;;5081076;28;20119;-72
2023/10/06 06:11:08;;;;;;;13.32;10.82;;;;;;;;;;5086499;28;20028;-74
2023/10/06 06:13:36;;;;;;;12.30;11.00;;;;;;;;;;5081626;28;20038;-74
2023/10/06 06:16:02;;;;;;;12.00;10.70;;;;;;;;;;5091205;28;20043;-73
2023/10/06 06:18:30;;;;;;;12.35;10.77;;;;;;;;;;5092044;28;20035;-73
2023/10/06 06:21:02;;;;;;;11.43;9.93;;;;;;;;;;5095352;28;20065;-73
2023/10/06 06:23:28;;;;;;;42.70;30.38;;;;;;;;;;5094649;28;21041;-73
2023/10/06 06:25:53;;;;;;;50.15;41.80;;;;;;;;;;5096557;28;20024;-71
2023/10/06 06:28:19;;;;;;;43.63;35.45;;;;;;;;;;5094452;28;20121;-72
2023/10/06 06:30:47;;;;;;;28.98;22.08;;;;;;;;;;5094270;28;20041;-72
2023/10/06 06:33:17;;;;;;;37.47;20.52;;;;;;;;;;5096255;28;20528;-75
2023/10/06 06:35:43;;;;;;;22.75;14.45;;;;;;;;;;5094136;28;20050;-74
2023/10/06 06:38:12;;;;;;;19.25;12.50;;;;;;;;;;5096217;28;20027;-73
2023/10/06 06:40:38;;;;;;;21.73;14.70;;;;;;;;;;5095875;28;20455;-72
2023/10/06 06:43:05;;;;;;;17.23;13.65;;;;;;;;;;5094628;28;20031;-72
2023/10/06 06:45:36;;;;;;;13.68;11.50;;;;;;;;;;5096270;28;20028;-72
2023/10/06 06:48:02;;;;;;;17.00;11.85;;;;;;;;;;5094231;28;20035;-73
2023/10/06 06:50:28;;;;;;;16.70;11.35;;;;;;;;;;5093829;28;20039;-73
2023/10/06 06:52:56;;;;;;;14.68;12.40;;;;;;;;;;5093052;28;20032;-73
2023/10/06 06:55:21;;;;;;;22.60;15.23;;;;;;;;;;5092440;28;20036;-74
2023/10/06 06:57:49;;;;;;;20.45;16.40;;;;;;;;;;5094150;28;20043;-73
2023/10/06 07:00:23;;;;;;;22.83;17.77;;;;;;;;;;5094048;28;20643;-73
2023/10/06 07:02:50;;;;;;;19.15;15.20;;;;;;;;;;5095762;28;20355;-73
2023/10/06 07:05:17;;;;;;;18.45;14.27;;;;;;;;;;5096403;28;20420;-74
2023/10/06 07:07:43;;;;;;;18.52;13.95;;;;;;;;;;5094115;28;20024;-73
2023/10/06 07:10:22;;;;;;;16.08;13.45;;;;;;;;;;5093852;28;20118;-73
2023/10/06 07:12:47;;;;;;;;;;;;;;;;;;5093542;28;20024;-73
2023/10/06 07:15:16;;;;;;;16.27;14.10;;;;;;;;;;5095446;28;19922;-73
2023/10/06 07:17:48;;;;;;;14.57;12.80;;;;;;;;;;5095252;28;20348;-73
2023/10/06 07:20:14;;;;;;;15.98;11.73;;;;;;;;;;5093596;28;20108;-75
2023/10/06 07:22:40;;;;;;;13.90;11.50;;;;;;;;;;5097123;28;20071;-74
2023/10/06 07:25:05;;;;;;;14.48;11.52;;;;;;;;;;5098122;28;20042;-72
2023/10/06 07:27:34;;;;;;;15.95;11.60;;;;;;;;;;5099867;28;20811;-73
2023/10/06 07:30:04;;;;;;;14.82;11.15;;;;;;;;;;5098678;28;20035;-73
2023/10/06 07:32:29;;;;;;;;;;;;;;;;;;5100002;28;20031;-74
2023/10/06 07:34:55;;;;;;;11.93;10.48;;;;;;;;;;5101458;28;20436;-74
2023/10/06 07:37:21;;;;;;;14.43;10.70;;;;;;;;;;5100730;28;20115;-73
2023/10/06 07:39:48;;;;;;;12.85;11.02;;;;;;;;;;5100546;28;20027;-73
2023/10/06 07:42:16;;;;;;;13.18;10.20;;;;;;;;;;5096611;28;20434;-73
2023/10/06 07:44:42;;;;;;;19.83;10.80;;;;;;;;;;5100171;27;20031;-74
2023/10/06 07:47:07;;;;;;;19.00;9.57;;;;;;;;;;5099030;27;20051;-73
2023/10/06 07:49:34;;;;;;;15.10;8.80;;;;;;;;;;5096426;28;20422;-73
2023/10/06 07:51:59;;;;;;;13.05;10.15;;;;;;;;;;5097548;28;20019;-74
2023/10/06 07:54:25;;;;;;;17.10;13.40;;;;;;;;;;5100011;28;20042;-73
2023/10/06 07:56:51;;;;;;;15.15;9.52;;;;;;;;;;5100295;27;20423;-75
2023/10/06 07:59:16;;;;;;;12.80;9.32;;;;;;;;;;5099021;28;20501;-73
2023/10/06 08:01:42;;;;;;;18.17;12.52;;;;;;;;;;5098961;28;20035;-73
2023/10/06 08:04:08;;;;;;;16.83;11.00;;;;;;;;;;5096230;28;20049;-72
2023/10/06 08:06:34;;;;;;;18.15;11.13;;;;;;;;;;5099286;28;20128;-75
2023/10/06 08:08:59;;;;;;;19.27;10.38;;;;;;;;;;5098906;28;20023;-74
2023/10/06 08:11:25;;;;;;;14.23;11.32;;;;;;;;;;5097319;28;20012;-73
2023/10/06 08:13:52;;;;;;;11.93;9.82;;;;;;;;;;5098982;28;20020;-72
2023/10/06 08:16:17;;;;;;;16.02;10.00;;;;;;;;;;5098878;28;20027;-73
2023/10/06 08:18:43;;;;;;;11.35;9.43;;;;;;;;;;5097043;28;20027;-72
2023/10/06 08:21:10;;;;;;;14.32;9.18;;;;;;;;;;5098828;28;20024;-73
2023/10/06 08:23:36;;;;;;;12.68;9.73;;;;;;;;;;5095221;28;21730;-73
2023/10/06 08:26:07;;;;;;;20.00;9.20;;;;;;;;;;5095807;28;20020;-74
2023/10/06 08:28:33;;;;;;;13.30;9.10;;;;;;;;;;5098055;28;20039;-73
2023/10/06 08:31:02;;;;;;;11.57;8.20;;;;;;;;;;5097172;28;20332;-73
2023/10/06 08:33:27;;;;;;;;;;;;;;;;;;5097434;28;20051;-73
2023/10/06 08:35:57;;;;;;;11.87;7.90;;;;;;;;;;5097968;28;20339;-73
2023/10/06 08:38:24;;;;;;;11.82;8.05;;;;;;;;;;5097519;28;20433;-74
2023/10/06 08:40:53;;;;;;;11.27;8.18;;;;;;;;;;5097905;28;20034;-73
2023/10/06 08:43:19;;;;;;;12.68;9.15;;;;;;;;;;5096763;28;20443;-75
2023/10/06 08:45:44;;;;;;;9.70;6.75;;;;;;;;;;5093921;28;20043;-74
2023/10/06 08:48:11;;;;;;;12.93;7.95;;;;;;;;;;5097555;28;20036;-72
2023/10/06 08:50:37;;;;;;;7.50;6.00;;;;;;;;;;5096542;28;20024;-73
2023/10/06 08:53:09;;;;;;;10.65;6.05;;;;;;;;;;5093444;28;20156;-73
2023/10/06 08:55:36;;;;;;;7.60;5.43;;;;;;;;;;5098697;28;20046;-73
2023/10/06 08:58:01;;;;;;;11.35;6.15;;;;;;;;;;5097428;28;20070;-74
2023/10/06 09:00:31;;;;;;;9.10;6.40;;;;;;;;;;5099022;28;20036;-74
2023/10/06 09:03:03;;;;;;;9.30;5.20;;;;;;;;;;5098877;28;20335;-74
2023/10/06 09:05:29;;;;;;;8.18;5.38;;;;;;;;;;5092722;28;20099;-73
2023/10/06 09:07:58;;;;;;;7.63;4.93;;;;;;;;;;5098195;28;20058;-73
2023/10/06 09:10:23;;;;;;;6.38;5.15;;;;;;;;;;5097128;28;20350;-73
2023/10/06 09:13:11;;;;;;;6.70;4.95;;;;;;;;;;5096688;28;20233;-73
2023/10/06 09:15:36;;;;;;;8.95;5.18;;;;;;;;;;5099522;28;20040;-71
2023/10/06 09:18:23;;;;;;;5.75;5.15;;;;;;;;;;5094699;28;20030;-72
2023/10/06 09:20:49;;;;;;;7.85;5.30;;;;;;;;;;5094358;28;20747;-72
2023/10/06 09:23:36;;;;;;;5.55;4.85;;;;;;;;;;5098996;28;20677;-71
2023/10/06 09:26:02;;;;;;;11.57;5.10;;;;;;;;;;5094955;28;20028;-73
2023/10/06 09:28:28;;;;;;;6.40;4.82;;;;;;;;;;5098014;28;20019;-73
2023/10/06 09:31:08;;;;;;;7.63;5.00;;;;;;;;;;5096618;28;20027;-74
2023/10/06 09:33:36;;;;;;;7.82;5.03;;;;;;;;;;5096263;28;20126;-75
2023/10/06 09:36:07;;;;;;;4.90;4.38;;;;;;;;;;5088698;28;20040;-73
2023/10/06 09:38:32;;;;;;;5.63;4.40;;;;;;;;;;5093358;28;20363;-71
2023/10/06 09:40:58;;;;;;;6.85;4.90;;;;;;;;;;5096263;28;20028;-72
2023/10/06 09:43:25;;;;;;;6.93;5.07;;;;;;;;;;5097200;27;20040;-73
2023/10/06 09:45:51;;;;;;;7.28;4.45;;;;;;;;;;5096723;28;20036;-75
2023/10/06 09:48:20;;;;;;;6.22;3.95;;;;;;;;;;5099074;28;20332;-74
2023/10/06 09:50:46;;;;;;;5.28;3.60;;;;;;;;;;5097329;28;20035;-73
2023/10/06 09:53:14;;;;;;;6.38;3.17;;;;;;;;;;5093952;28;20481;-73
2023/10/06 09:55:40;;;;;;;6.63;3.80;;;;;;;;;;5094372;28;20028;-72
2023/10/06 09:58:06;;;;;;;5.70;4.20;;;;;;;;;;5096428;28;20036;-73
2023/10/06 10:00:34;;;;;;;6.18;3.95;;;;;;;;;;5094511;28;20081;-73
2023/10/06 10:03:00;;;;;;;6.75;5.50;;;;;;;;;;5093869;28;20054;-72
2023/10/06 10:05:26;;;;;;;6.00;4.70;;;;;;;;;;5096883;28;20051;-73
2023/10/06 10:07:53;;;;;;;5.97;3.63;;;;;;;;;;5097525;27;20419;-72
2023/10/06 10:10:27;;;;;;;7.30;3.55;;;;;;;;;;5093744;28;20027;-73
2023/10/06 10:13:07;;;;;;;7.35;4.13;;;;;;;;;;5095190;28;20024;-73
2023/10/06 10:15:51;;;;;;;12.38;5.80;;;;;;;;;;5096749;28;20081;-73
2023/10/06 10:18:19;;;;;;;11.18;7.25;;;;;;;;;;5093540;28;20028;-73
2023/10/06 10:20:46;;;;;;;8.30;4.30;;;;;;;;;;5094878;28;20374;-73
2023/10/06 10:23:18;;;;;;;8.55;5.03;;;;;;;;;;5095004;28;20621;-74
2023/10/06 10:25:44;;;;;;;8.70;5.20;;;;;;;;;;5093505;28;20043;-73
2023/10/06 10:28:27;;;;;;;7.97;5.22;;;;;;;;;;5096552;28;20016;-73
2023/10/06 10:31:01;;;;;;;7.18;4.82;;;;;;;;;;5095942;28;20016;-75
2023/10/06 10:33:30;;;;;;;8.43;5.35;;;;;;;;;;5095653;28;20035;-72
2023/10/06 10:36:17;;;;;;;8.52;4.90;;;;;;;;;;5096463;28;20023;-73
2023/10/06 10:38:43;;;;;;;9.52;5.05;;;;;;;;;;5095767;28;20032;-74
2023/10/06 10:41:09;;;;;;;6.55;4.47;;;;;;;;;;5096047;28;20352;-74
2023/10/06 10:43:38;;;;;;;11.05;5.53;;;;;;;;;;5097157;28;20023;-73
2023/10/06 10:46:09;;;;;;;7.07;5.05;;;;;;;;;;5092329;28;20055;-75
2023/10/06 10:48:37;;;;;;;11.57;6.30;;;;;;;;;;5096317;28;20031;-75
2023/10/06 10:51:12;;;;;;;6.93;5.03;;;;;;;;;;5096813;28;20032;-72
2023/10/06 10:53:49;;;;;;;5.13;4.50;;;;;;;;;;5095239;28;20427;-74
2023/10/06 10:56:26;;;;;;;6.28;3.80;;;;;;;;;;5099074;28;20043;-76
2023/10/06 10:58:56;;;;;;;6.30;3.70;;;;;;;;;;5100671;28;20027;-74
2023/10/06 11:01:36;;;;;;;7.07;4.47;;;;;;;;;;5099118;28;20031;-76
2023/10/06 11:04:18;;;;;;;7.57;5.05;;;;;;;;;;5099847;28;20027;-73
2023/10/06 11:06:44;;;;;;;4.82;3.47;;;;;;;;;;5099520;28;20031;-73
2023/10/06 11:09:25;;;;;;;8.52;3.58;;;;;;;;;;5102085;28;20453;-75
2023/10/06 11:12:10;;;;;;;4.47;3.47;;;;;;;;;;5098766;28;20968;-73
2023/10/06 11:14:40;;;;;;;6.30;3.50;;;;;;;;;;5099270;28;20039;-73
2023/10/06 11:17:06;;;;;;;10.85;4.18;;;;;;;;;;5099457;28;20806;-74
2023/10/06 11:19:33;;;;;;;6.85;4.03;;;;;;;;;;5098858;28;20130;-75
2023/10/06 11:22:19;;;;;;;5.63;4.07;;;;;;;;;;5097599;28;20072;-76
2023/10/06 11:24:45;;;;;;;6.18;3.95;;;;;;;;;;5099675;28;20046;-73
2023/10/06 11:27:15;;;;;;;4.97;3.90;;;;;;;;;;5098608;28;20028;-74
2023/10/06 11:29:40;;;;;;;6.18;4.25;;;;;;;;;;5099404;28;20023;-73
2023/10/06 11:32:05;;;;;;;4.97;3.72;;;;;;;;;;5100575;28;20094;-74
2023/10/06 11:34:31;;;;;;;5.38;4.00;;;;;;;;;;5088876;28;24247;-74
2023/10/06 11:36:57;;;;;;;9.32;4.20;;;;;;;;;;5094627;28;20023;-73
2023/10/06 11:39:29;;;;;;;7.85;4.07;;;;;;;;;;5078815;28;20412;-75
2023/10/06 11:42:13;;;;;;;7.43;4.75;;;;;;;;;;5089900;28;20355;-74
2023/10/06 11:44:38;;;;;;;12.38;4.60;;;;;;;;;;5086992;28;20452;-73
2023/10/06 11:47:04;;;;;;;6.90;4.50;;;;;;;;;;5090009;28;20046;-74
2023/10/06 11:49:29;;;;;;;6.97;4.85;;;;;;;;;;5087685;28;20024;-74
2023/10/06 11:51:56;;;;;;;4.32;3.88;;;;;;;;;;5091606;28;20916;-75
2023/10/06 11:54:22;;;;;;;6.93;4.00;;;;;;;;;;5090071;28;20508;-74
2023/10/06 11:56:49;;;;;;;6.95;4.25;;;;;;;;;;5089686;28;20105;-74
2023/10/06 11:59:22;;;;;;;7.55;4.38;;;;;;;;;;5094481;28;20059;-73
2023/10/06 12:01:48;;;;;;;5.68;4.03;;;;;;;;;;5077671;28;20024;-73
2023/10/06 12:04:23;;;;;;;5.45;3.88;;;;;;;;;;5070162;28;20089;-76
2023/10/06 12:06:50;;;;;;;7.25;3.85;;;;;;;;;;5075808;28;20020;-74
2023/10/06 12:09:23;;;;;;;4.53;4.10;;;;;;;;;;5075393;28;21039;-75
2023/10/06 12:11:48;;;;;;;6.05;3.90;;;;;;;;;;5071353;28;20051;-72
2023/10/06 12:14:14;;;;;;;5.72;3.92;;;;;;;;;;5070515;28;20451;-73
2023/10/06 12:16:44;;;;;;;7.43;4.40;;;;;;;;;;5073121;28;20058;-77
2023/10/06 12:19:11;;;;;;;10.45;8.48;;;;;;;;;;5074640;28;20113;-72
2023/10/06 12:21:36;;;;;;;5.97;4.30;;;;;;;;;;5085778;28;20043;-74
2023/10/06 12:24:02;;;;;;;6.78;4.35;;;;;;;;;;5081587;28;20374;-73
2023/10/06 12:26:28;;;;;;;15.32;9.23;;;;;;;;;;5073024;28;20046;-74
2023/10/06 12:28:54;;;;;;;5.60;3.88;;;;;;;;;;5084478;28;20020;-72
2023/10/06 12:31:19;;;;;;;8.30;3.88;;;;;;;;;;5080288;28;20016;-72
2023/10/06 12:33:45;;;;;;;5.88;3.88;;;;;;;;;;5088180;28;20051;-74
2023/10/06 12:36:12;;;;;;;8.20;4.20;;;;;;;;;;5099318;28;20483;-75
2023/10/06 12:38:39;;;;;;;6.22;3.55;;;;;;;;;;5097700;28;20339;-73
2023/10/06 12:41:09;;;;;;;8.73;5.35;;;;;;;;;;5082778;28;20397;-71
2023/10/06 12:43:37;;;;;;;;;;;;;;;;;;5075631;28;20032;-72
2023/10/06 12:46:03;;;;;;;7.10;4.13;;;;;;;;;;5079298;28;19915;-77
2023/10/06 12:48:30;;;;;;;27.10;21.13;;;;;;;;;;5088317;28;20859;-72
2023/10/06 12:50:55;;;;;;;13.60;9.45;;;;;;;;;;5096275;28;20110;-73
2023/10/06 12:53:21;;;;;;;10.07;5.68;;;;;;;;;;5081201;28;20110;-72
2023/10/06 12:55:56;;;;;;;8.27;3.75;;;;;;;;;;5078246;28;20035;-74
2023/10/06 12:58:22;;;;;;;7.13;3.53;;;;;;;;;;5075567;28;20409;-72
2023/10/06 13:00:47;;;;;;;6.35;4.35;;;;;;;;;;5073510;28;20012;-73
2023/10/06 13:03:15;;;;;;;4.05;3.33;;;;;;;;;;5075354;28;20027;-73
2023/10/06 13:05:45;;;;;;;11.50;5.88;;;;;;;;;;5089820;28;21116;-72
2023/10/06 13:08:16;;;;;;;7.78;5.68;;;;;;;;;;5097491;28;20031;-72
2023/10/06 13:10:41;;;;;;;8.35;4.53;;;;;;;;;;5098441;28;20015;-73
2023/10/06 13:13:07;;;;;;;6.05;3.95;;;;;;;;;;5093494;28;20450;-75
2023/10/06 13:15:32;;;;;;;7.63;3.60;;;;;;;;;;5088850;28;20478;-72
2023/10/06 13:17:57;;;;;;;9.85;6.57;;;;;;;;;;5095524;28;20458;-70
2023/10/06 13:20:23;;;;;;;8.68;6.80;;;;;;;;;;5096573;28;20715;-71
2023/10/06 13:22:48;;;;;;;10.10;6.97;;;;;;;;;;5097179;28;20339;-72
2023/10/06 13:25:14;;;;;;;13.35;8.88;;;;;;;;;;5081481;28;20043;-73
2023/10/06 13:27:46;;;;;;;12.23;10.35;;;;;;;;;;5080984;28;20081;-74
2023/10/06 13:30:16;;;;;;;9.68;4.55;;;;;;;;;;5095866;28;20105;-75
2023/10/06 13:32:44;;;;;;;4.40;3.97;;;;;;;;;;5082294;28;20032;-71
2023/10/06 13:35:16;;;;;;;5.82;3.83;;;;;;;;;;5082299;28;20093;-72
2023/10/06 13:37:41;;;;;;;4.88;3.90;;;;;;;;;;5073293;28;20107;-72
2023/10/06 13:40:10;;;;;;;6.75;3.90;;;;;;;;;;5078152;28;20104;-73
2023/10/06 13:42:41;;;;;;;4.18;3.45;;;;;;;;;;5089909;28;20114;-72
2023/10/06 13:45:14;;;;;;;5.15;4.32;;;;;;;;;;5092973;28;20027;-72
2023/10/06 13:47:40;;;;;;;6.07;3.92;;;;;;;;;;5094862;28;20411;-74
2023/10/06 13:50:06;;;;;;;6.95;4.00;;;;;;;;;;5094406;28;20069;-74
2023/10/06 13:52:33;;;;;;;4.38;3.92;;;;;;;;;;5095326;28;20059;-74
2023/10/06 13:54:58;;;;;;;6.68;4.68;;;;;;;;;;5094553;28;20028;-74
2023/10/06 13:57:23;;;;;;;4.35;3.88;;;;;;;;;;5092820;27;20050;-74
2023/10/06 13:59:49;;;;;;;6.00;3.53;;;;;;;;;;5099037;28;20095;-77
2023/10/06 14:02:16;;;;;;;5.47;3.05;;;;;;;;;;5097756;28;20062;-74
2023/10/06 14:04:41;;;;;;;4.38;3.40;;;;;;;;;;5094895;27;20023;-75
2023/10/06 14:07:11;;;;;;;9.93;3.97;;;;;;;;;;5094963;28;20034;-74
2023/10/06 14:09:37;;;;;;;5.93;3.50;;;;;;;;;;5094702;28;20429;-72
2023/10/06 14:12:07;;;;;;;5.68;3.80;;;;;;;;;;5096189;28;20111;-76
2023/10/06 14:17:10;;;;;;;5.40;3.70;;;;;;;;;;5094526;28;20042;-71
2023/10/06 14:19:36;;;;;;;6.85;5.00;;;;;;;;;;5094239;28;20187;-71
2023/10/06 14:22:01;;;;;;;9.95;6.72;;;;;;;;;;5094013;28;20146;-72
2023/10/06 14:24:27;;;;;;;10.38;6.68;;;;;;;;;;5096687;28;20106;-72
2023/10/06 14:26:52;;;;;;;8.45;5.78;;;;;;;;;;5089613;28;20103;-72
2023/10/06 14:29:17;;;;;;;5.90;3.83;;;;;;;;;;5092536;28;20351;-72
2023/10/06 14:31:58;;;;;;;6.28;3.90;;;;;;;;;;5086577;28;20111;-76
2023/10/06 14:34:46;;;;;;;5.55;4.18;;;;;;;;;;5091302;28;20079;-73
2023/10/06 14:37:25;;;;;;;5.53;3.63;;;;;;;;;;5080881;28;20028;-72
2023/10/06 14:48:03;;;;;;;5.80;4.00;;;;;;;;;;5082217;28;20092;-71
2023/10/06 14:50:28;;;;;;;6.28;3.95;;;;;;;;;;5075128;28;20027;-70
2023/10/06 14:52:54;;;;;;;12.13;3.88;;;;;;;;;;5065669;28;20415;-71
2023/10/06 14:55:21;;;;;;;6.85;4.57;;;;;;;;;;5068673;28;20470;-70
2023/10/06 14:57:48;;;;;;;8.52;4.32;;;;;;;;;;5069302;28;20031;-74
2023/10/06 15:00:14;;;;;;;5.20;4.50;;;;;;;;;;5090759;28;20123;-71
2023/10/06 15:02:42;;;;;;;6.85;3.92;;;;;;;;;;5082787;28;20107;-71
2023/10/06 15:05:12;;;;;;;5.82;4.50;;;;;;;;;;5087602;28;20378;-71